Time;durP1;ratioP1;P1;durP2;ratioP2;P2;SDS_P1;SDS_P2;PMS_P1;PMS_P2;Temp;Humidity;BMP_temperature;BMP_pressure;BME280_temperature;BME280_humidity;BME280_pressure;Samples;Min_cycle;Max_cycle;Signal;HPM_P1;HPM_P2
2021/09/28 00:00:21;;;;;;;16.23;14.20;;;;;;;31.43;68.27;100866.38;5055043;28;66251;-38
2021/09/28 00:02:52;;;;;;;15.00;13.52;;;;;;;31.35;68.30;100877.47;5052747;28;70456;-37
2021/09/28 00:05:23;;;;;;;15.35;13.93;;;;;;;31.31;68.29;100876.25;5056961;28;66526;-38
2021/09/28 00:07:54;;;;;;;15.50;13.55;;;;;;;31.25;68.15;100866.31;5057402;28;70001;-38
2021/09/28 00:10:25;;;;;;;14.68;13.48;;;;;;;31.20;68.64;100874.25;5049862;28;65639;-38
2021/09/28 00:12:56;;;;;;;16.10;14.40;;;;;;;31.19;68.14;100878.03;5053897;28;70135;-38
2021/09/28 00:15:27;;;;;;;;;;;;;;;30.90;69.54;100874.97;5049140;28;66220;-38
2021/09/28 00:17:58;;;;;;;18.02;16.23;;;;;;;31.09;68.76;100873.97;5052096;28;70201;-38
2021/09/28 00:20:32;;;;;;;17.13;15.20;;;;;;;31.10;68.95;100878.31;5051723;28;65434;-38
2021/09/28 00:23:07;;;;;;;18.45;16.52;;;;;;;31.11;69.28;100871.84;5052373;28;69196;-38
2021/09/28 00:25:38;;;;;;;16.90;15.43;;;;;;;31.09;69.26;100882.09;5021038;28;66059;-38
2021/09/28 00:28:09;;;;;;;19.55;16.27;;;;;;;31.10;69.11;100885.63;5052464;28;69305;-38
2021/09/28 00:30:40;;;;;;;18.45;16.80;;;;;;;31.09;69.10;100887.50;5057308;28;66438;-39
2021/09/28 00:33:11;;;;;;;20.15;18.08;;;;;;;31.10;69.36;100891.03;5050347;27;69724;-38
2021/09/28 00:35:57;;;;;;;20.02;18.08;;;;;;;31.09;69.29;100884.81;5049838;28;65714;-38
2021/09/28 00:38:28;;;;;;;19.80;17.33;;;;;;;31.07;69.23;100886.91;5051372;28;69161;-39
2021/09/28 00:41:01;;;;;;;19.88;17.75;;;;;;;31.09;69.46;100889.38;5057469;28;66539;-38
2021/09/28 00:43:53;;;;;;;18.92;17.13;;;;;;;30.79;69.86;100856.69;5051802;28;70159;-38
2021/09/28 00:46:26;;;;;;;18.10;16.42;;;;;;;31.07;69.45;100888.78;5052249;28;66201;-38
2021/09/28 00:49:02;;;;;;;18.90;17.13;;;;;;;31.11;69.29;100893.50;5057739;27;70068;-38
2021/09/28 00:51:35;;;;;;;21.35;19.45;;;;;;;30.89;69.37;100863.28;5056548;27;66599;-38
2021/09/28 00:54:08;;;;;;;23.88;21.27;;;;;;;31.01;69.94;100885.06;5040700;28;69635;-38
2021/09/28 00:56:55;;;;;;;23.45;20.95;;;;;;;30.88;69.44;100866.22;5035134;28;66164;-38
2021/09/28 00:59:30;;;;;;;24.23;21.48;;;;;;;31.13;69.75;100907.69;5047706;28;69299;-38
2021/09/28 01:02:11;;;;;;;23.17;20.65;;;;;;;31.11;69.62;100909.78;5043145;28;66141;-37
2021/09/28 01:04:45;;;;;;;22.90;19.63;;;;;;;31.18;69.76;100915.16;5043604;28;70498;-38
2021/09/28 01:07:21;;;;;;;22.20;19.85;;;;;;;31.20;69.28;100915.75;5046938;28;65776;-38
2021/09/28 01:09:55;;;;;;;21.85;19.23;;;;;;;31.16;69.93;100918.06;5031620;28;69498;-39
2021/09/28 01:12:34;;;;;;;19.92;18.02;;;;;;;31.22;69.39;100927.19;5027434;28;66042;-39
2021/09/28 01:15:10;;;;;;;20.38;18.35;;;;;;;31.25;69.64;100923.22;5049300;28;70551;-39
2021/09/28 01:17:48;;;;;;;21.90;18.17;;;;;;;31.25;69.98;100920.50;5062389;27;66214;-38
2021/09/28 01:20:25;;;;;;;21.60;18.08;;;;;;;31.02;69.86;100880.47;5046627;28;69954;-38
2021/09/28 01:23:16;;;;;;;21.48;18.55;;;;;;;31.28;69.21;100931.72;5048917;28;65579;-39
2021/09/28 01:25:52;;;;;;;21.07;18.83;;;;;;;31.24;68.27;100922.38;5030962;28;71268;-39
2021/09/28 01:28:28;;;;;;;21.25;19.10;;;;;;;31.25;68.83;100928.63;5043889;28;64767;-38
2021/09/28 01:31:06;;;;;;;22.98;17.67;;;;;;;31.24;68.70;100937.81;5019348;28;69955;-39
2021/09/28 01:33:40;;;;;;;19.77;18.10;;;;;;;31.22;69.33;100937.22;5044354;28;66240;-38
2021/09/28 01:36:16;;;;;;;18.55;16.88;;;;;;;31.28;68.78;100939.03;5032072;28;70009;-39
2021/09/28 01:38:53;;;;;;;17.33;16.10;;;;;;;31.30;69.27;100939.63;5039372;28;66014;-39
2021/09/28 01:41:37;;;;;;;17.48;16.00;;;;;;;31.32;69.14;100942.97;5047605;28;70234;-39
2021/09/28 01:44:14;;;;;;;18.40;16.77;;;;;;;31.08;69.52;100893.97;5047481;28;65167;-40
2021/09/28 01:46:50;;;;;;;17.58;16.05;;;;;;;31.33;69.75;100944.63;5046110;28;69584;-38
2021/09/28 01:49:40;;;;;;;16.85;15.52;;;;;;;31.33;69.23;100933.78;5042759;28;66638;-39
2021/09/28 01:52:22;;;;;;;17.75;15.75;;;;;;;31.39;69.28;100943.75;5030009;28;69005;-39
2021/09/28 01:55:03;;;;;;;17.00;15.13;;;;;;;31.40;69.58;100950.84;5044420;28;65370;-39
2021/09/28 01:57:59;;;;;;;15.88;14.75;;;;;;;31.38;69.48;100947.53;5030569;28;69882;-38
2021/09/28 02:00:36;;;;;;;25.83;18.33;;;;;;;31.41;69.98;100947.09;5051295;28;66227;-39
2021/09/28 02:03:15;;;;;;;37.05;21.20;;;;;;;31.44;69.77;100940.38;5037764;28;70144;-39
2021/09/28 02:05:50;;;;;;;35.97;22.13;;;;;;;31.43;70.04;100934.13;5038361;28;66454;-39
2021/09/28 02:08:24;;;;;;;42.35;23.30;;;;;;;31.50;70.10;100937.59;5046869;28;70524;-39
2021/09/28 02:10:58;;;;;;;46.83;23.92;;;;;;;31.52;70.11;100940.94;5037449;28;65762;-39
2021/09/28 02:13:37;;;;;;;47.33;25.27;;;;;;;31.56;69.92;100939.41;5048840;28;69674;-39
2021/09/28 02:16:20;;;;;;;44.28;25.23;;;;;;;31.58;69.92;100936.50;5048960;28;66145;-38
2021/09/28 02:18:57;;;;;;;43.13;26.48;;;;;;;31.61;70.20;100936.88;5038652;28;70054;-39
2021/09/28 02:21:32;;;;;;;48.25;26.33;;;;;;;31.63;69.70;100938.53;5032096;28;66682;-38
2021/09/28 02:24:32;;;;;;;47.50;24.90;;;;;;;31.61;70.04;100939.56;5051683;28;69335;-40
2021/09/28 02:27:18;;;;;;;55.72;26.65;;;;;;;31.24;70.26;100889.03;5055699;28;65365;-37
2021/09/28 02:29:52;;;;;;;49.75;27.38;;;;;;;31.64;70.61;100940.19;5016715;28;69593;-40
2021/09/28 02:32:48;;;;;;;51.05;27.90;;;;;;;31.53;69.83;100942.56;5032555;28;66410;-39
2021/09/28 02:35:47;;;;;;;45.28;23.98;;;;;;;31.71;68.88;100946.38;5016010;28;70422;-39
2021/09/28 02:38:30;;;;;;;39.53;22.85;;;;;;;31.71;68.27;100946.38;5030990;28;65088;-39
2021/09/28 02:41:08;;;;;;;31.05;21.38;;;;;;;31.76;67.95;100943.81;5046414;28;69314;-39
2021/09/28 02:43:46;;;;;;;27.58;18.67;;;;;;;31.82;67.66;100953.78;5026567;28;65290;-38
2021/09/28 02:46:29;;;;;;;27.92;18.92;;;;;;;31.87;67.79;100945.75;5044268;27;70167;-38
2021/09/28 02:49:13;;;;;;;19.35;16.20;;;;;;;31.89;67.43;100932.81;5038160;28;65671;-38
2021/09/28 02:52:03;;;;;;;16.35;14.85;;;;;;;31.87;65.54;100934.09;5040616;28;68544;-39
2021/09/28 02:54:44;;;;;;;16.15;14.05;;;;;;;31.94;66.27;100933.00;5015753;28;65852;-38
2021/09/28 02:57:29;;;;;;;18.40;15.88;;;;;;;31.95;66.55;100926.50;5045749;28;70153;-38
2021/09/28 03:00:11;;;;;;;16.98;15.32;;;;;;;31.97;65.90;100927.13;5046999;28;66583;-38
2021/09/28 03:02:46;;;;;;;23.05;14.70;;;;;;;31.98;66.15;100915.22;5017520;28;69323;-39
2021/09/28 03:05:21;;;;;;;16.35;14.90;;;;;;;32.00;65.42;100923.94;5011423;28;66212;-39
2021/09/28 03:07:53;;;;;;;20.30;15.73;;;;;;;31.98;66.13;100919.81;5031236;28;70429;-37
2021/09/28 03:10:29;;;;;;;16.33;14.85;;;;;;;31.91;65.97;100902.75;5020790;28;66046;-37
2021/09/28 03:13:02;;;;;;;17.40;15.70;;;;;;;32.04;66.45;100913.50;5042145;28;69951;-38
2021/09/28 03:15:40;;;;;;;17.85;15.77;;;;;;;32.04;66.51;100910.78;5043565;28;66365;-39
2021/09/28 03:18:11;;;;;;;17.83;14.88;;;;;;;32.01;66.60;100909.34;5048181;28;69882;-39
2021/09/28 03:20:50;;;;;;;18.13;15.80;;;;;;;32.09;66.74;100904.66;5033722;28;63892;-39
2021/09/28 03:23:23;;;;;;;16.77;14.98;;;;;;;32.09;66.57;100900.03;5032278;28;70430;-37
2021/09/28 03:25:56;;;;;;;28.63;16.25;;;;;;;32.14;66.99;100896.66;5017865;28;66069;-39
2021/09/28 03:28:30;;;;;;;20.00;15.25;;;;;;;32.07;67.06;100880.47;5043008;28;70000;-39
2021/09/28 03:31:02;;;;;;;19.77;15.48;;;;;;;32.13;66.82;100886.88;5031616;28;65854;-38
2021/09/28 03:33:35;;;;;;;17.83;15.95;;;;;;;32.18;67.23;100881.56;5037221;28;70024;-39
2021/09/28 03:36:06;;;;;;;18.02;16.02;;;;;;;32.18;67.67;100876.97;5039553;28;66136;-39
2021/09/28 03:38:38;;;;;;;21.05;17.48;;;;;;;32.20;67.71;100874.03;5040074;28;70261;-39
2021/09/28 03:41:09;;;;;;;18.05;16.30;;;;;;;32.20;67.76;100865.88;5040768;28;66501;-38
2021/09/28 03:43:42;;;;;;;17.60;15.73;;;;;;;32.28;65.95;100865.56;5041224;28;70040;-39
2021/09/28 03:46:14;;;;;;;15.50;13.95;;;;;;;32.30;65.74;100858.03;5039132;28;66483;-39
2021/09/28 03:48:46;;;;;;;13.98;12.90;;;;;;;32.34;65.33;100861.09;5046799;28;70262;-39
2021/09/28 03:51:17;;;;;;;15.13;13.68;;;;;;;32.37;64.67;100853.31;5034230;28;67117;-39
2021/09/28 03:53:51;;;;;;;15.93;13.13;;;;;;;32.38;64.66;100849.56;5047002;28;69409;-39
2021/09/28 03:56:23;;;;;;;13.85;12.63;;;;;;;32.42;65.15;100839.88;5044504;28;65562;-39
2021/09/28 03:58:54;;;;;;;16.52;13.43;;;;;;;32.35;65.47;100828.31;5043909;28;69198;-38
2021/09/28 04:01:25;;;;;;;21.43;13.40;;;;;;;32.41;66.29;100830.09;5035506;28;66445;-38
2021/09/28 04:03:59;;;;;;;16.83;13.50;;;;;;;32.41;66.46;100821.94;5044705;27;70362;-38
2021/09/28 04:06:31;;;;;;;16.77;12.77;;;;;;;32.45;66.81;100819.56;5023891;28;65983;-39
2021/09/28 04:09:02;;;;;;;16.17;13.33;;;;;;;32.45;67.32;100811.44;5044963;28;69773;-38
2021/09/28 04:11:33;;;;;;;;;;;;;;;32.23;68.40;100805.72;5034131;28;66463;-38
2021/09/28 04:14:04;;;;;;;13.38;12.02;;;;;;;32.51;67.63;100812.41;5049637;28;69561;-39
2021/09/28 04:16:36;;;;;;;14.13;12.38;;;;;;;32.49;67.97;100801.81;5019211;28;67149;-39
2021/09/28 04:19:08;;;;;;;15.70;12.38;;;;;;;32.54;67.79;100798.38;5050894;28;70524;-38
2021/09/28 04:21:42;;;;;;;13.45;12.35;;;;;;;32.55;68.34;100792.72;5039651;28;66081;-40
2021/09/28 04:24:14;;;;;;;12.98;11.77;;;;;;;32.56;68.28;100785.41;5030061;28;69883;-39
2021/09/28 04:26:45;;;;;;;12.88;11.63;;;;;;;32.55;67.86;100773.72;5046333;28;65804;-42
2021/09/28 04:29:16;;;;;;;14.38;11.45;;;;;;;32.62;67.37;100776.31;5043281;28;69521;-40
2021/09/28 04:31:47;;;;;;;14.13;11.50;;;;;;;32.54;67.90;100755.78;5041496;28;65465;-40
2021/09/28 04:34:18;;;;;;;13.45;11.77;;;;;;;32.64;67.35;100766.03;5045861;28;70403;-40
2021/09/28 04:36:49;;;;;;;11.70;10.93;;;;;;;32.61;67.20;100759.19;5035772;28;64878;-39
2021/09/28 04:39:20;;;;;;;12.35;11.32;;;;;;;32.59;67.21;100747.72;5047907;28;70004;-39
2021/09/28 04:41:51;;;;;;;11.43;10.63;;;;;;;32.61;67.29;100761.09;5046839;28;66567;-40
2021/09/28 04:44:23;;;;;;;11.90;10.38;;;;;;;32.62;66.86;100754.59;5047470;28;70180;-40
2021/09/28 04:47:04;;;;;;;10.88;10.20;;;;;;;32.58;66.98;100739.84;5044819;28;65579;-40
2021/09/28 04:49:35;;;;;;;10.87;10.00;;;;;;;32.63;66.90;100726.38;5043986;28;71084;-39
2021/09/28 04:52:07;;;;;;;11.05;10.23;;;;;;;32.61;66.54;100723.88;5048727;28;65020;-40
2021/09/28 04:54:40;;;;;;;11.60;10.70;;;;;;;32.66;66.41;100715.03;5044081;28;69527;-40
2021/09/28 04:57:11;;;;;;;11.07;10.00;;;;;;;32.65;66.46;100702.50;5042607;28;66108;-39
2021/09/28 04:59:42;;;;;;;10.55;9.80;;;;;;;32.67;66.30;100700.38;5040010;28;70476;-40
2021/09/28 05:02:14;;;;;;;9.95;9.45;;;;;;;32.67;65.81;100700.38;5040708;28;66350;-40
2021/09/28 05:04:45;;;;;;;9.75;9.15;;;;;;;32.72;65.72;100695.06;5040733;28;69045;-40
2021/09/28 05:07:16;;;;;;;9.93;9.33;;;;;;;32.71;65.71;100686.13;5039084;28;66090;-40
2021/09/28 05:09:48;;;;;;;12.73;9.70;;;;;;;32.70;65.76;100678.19;5030718;28;70743;-40
2021/09/28 05:12:20;;;;;;;10.05;9.35;;;;;;;32.75;65.47;100675.59;5046822;28;65721;-39
2021/09/28 05:14:51;;;;;;;9.90;9.30;;;;;;;32.75;65.39;100681.03;5047723;28;69551;-40
2021/09/28 05:17:22;;;;;;;10.27;9.63;;;;;;;32.78;65.14;100666.97;5045140;28;66299;-39
2021/09/28 05:19:52;;;;;;;10.75;9.93;;;;;;;32.69;65.14;100652.09;5038401;28;70021;-39
2021/09/28 05:22:25;;;;;;;10.95;9.95;;;;;;;32.77;65.16;100662.59;5049325;28;67047;-40
2021/09/28 05:24:56;;;;;;;10.18;9.65;;;;;;;32.79;65.10;100654.19;5043556;28;70282;-40
2021/09/28 05:27:27;;;;;;;10.80;9.63;;;;;;;32.74;65.23;100662.25;5028961;28;65819;-40
2021/09/28 05:29:58;;;;;;;11.03;10.17;;;;;;;32.78;65.08;100652.56;5043760;28;69736;-40
2021/09/28 05:32:29;;;;;;;13.80;12.90;;;;;;;32.81;64.10;100642.03;5047489;28;65872;-40
2021/09/28 05:35:00;;;;;;;15.00;12.27;;;;;;;32.86;63.72;100639.44;5040013;28;71152;-40
2021/09/28 05:37:32;;;;;;;16.58;14.82;;;;;;;32.86;61.57;100633.16;5050366;28;66351;-40
2021/09/28 05:40:04;;;;;;;19.55;14.07;;;;;;;32.89;63.59;100629.97;5045586;28;70018;-40
2021/09/28 05:42:36;;;;;;;15.07;14.05;;;;;;;32.94;64.11;100630.09;5041957;28;66317;-40
2021/09/28 05:45:08;;;;;;;16.67;15.18;;;;;;;32.97;64.31;100626.88;5040792;28;69968;-40
2021/09/28 05:47:41;;;;;;;15.30;14.20;;;;;;;32.99;63.64;100621.19;5036761;28;65884;-41
2021/09/28 05:50:12;;;;;;;15.73;14.55;;;;;;;33.03;64.14;100616.97;5009729;28;69725;-40
2021/09/28 05:52:45;;;;;;;15.75;14.45;;;;;;;33.04;63.98;100613.19;5051925;28;65537;-40
2021/09/28 05:55:16;;;;;;;17.75;15.68;;;;;;;33.07;63.55;100604.53;5039641;28;69800;-39
2021/09/28 05:57:47;;;;;;;16.30;14.90;;;;;;;33.09;63.00;100605.13;5036524;28;66179;-40
2021/09/28 06:00:19;;;;;;;16.70;15.50;;;;;;;33.09;62.78;100599.69;5037769;28;70812;-39
2021/09/28 06:02:50;;;;;;;17.70;15.82;;;;;;;33.15;62.79;100598.72;5042271;28;67034;-40
2021/09/28 06:05:22;;;;;;;15.95;14.35;;;;;;;33.18;63.21;100594.69;5036370;28;69582;-40
2021/09/28 06:07:54;;;;;;;15.55;14.35;;;;;;;33.19;63.43;100583.59;5036886;28;66626;-40
2021/09/28 06:10:28;;;;;;;16.42;14.95;;;;;;;33.23;63.09;100578.47;5038890;28;70162;-40
2021/09/28 06:13:01;;;;;;;16.73;15.10;;;;;;;33.24;63.26;100575.53;5041320;28;66408;-40
2021/09/28 06:15:32;;;;;;;15.32;13.98;;;;;;;33.29;63.37;100572.91;5024657;28;70096;-40
2021/09/28 06:18:04;;;;;;;14.98;13.73;;;;;;;33.06;63.28;100533.06;5042206;28;65910;-39
2021/09/28 06:20:36;;;;;;;15.82;14.32;;;;;;;33.29;63.24;100564.75;5035426;28;70124;-40
2021/09/28 06:23:09;;;;;;;15.10;13.80;;;;;;;33.28;63.22;100554.94;5043918;28;65989;-40
2021/09/28 06:25:40;;;;;;;14.05;13.18;;;;;;;33.30;63.04;100552.81;5043451;28;69223;-39
2021/09/28 06:28:12;;;;;;;15.20;14.13;;;;;;;33.27;62.58;100542.44;5045153;28;66078;-39
2021/09/28 06:30:43;;;;;;;;;;;;;;;33.11;63.10;100554.91;5037814;28;70463;-39
2021/09/28 06:33:15;;;;;;;15.00;13.98;;;;;;;33.29;62.83;100537.56;5043978;28;65463;-41
2021/09/28 06:35:46;;;;;;;15.38;13.85;;;;;;;33.35;62.48;100535.78;5040914;28;69969;-41
2021/09/28 06:38:18;;;;;;;14.38;13.55;;;;;;;33.43;62.49;100539.97;5045550;28;66474;-41
2021/09/28 06:40:49;;;;;;;13.98;12.70;;;;;;;33.43;62.23;100529.09;5041096;28;70029;-40
2021/09/28 06:43:21;;;;;;;13.75;12.95;;;;;;;33.47;62.27;100525.63;5040193;28;65921;-40
2021/09/28 06:45:52;;;;;;;14.38;13.35;;;;;;;33.48;62.23;100531.91;5046052;28;71091;-40
2021/09/28 06:48:28;;;;;;;13.82;12.80;;;;;;;33.52;62.07;100516.75;5043287;28;65595;-40
2021/09/28 06:51:00;;;;;;;13.77;12.75;;;;;;;33.51;62.14;100509.63;5026945;28;70861;-40
2021/09/28 06:53:33;;;;;;;14.63;13.55;;;;;;;33.53;62.16;100512.97;5040349;27;66385;-40
2021/09/28 06:56:10;;;;;;;14.10;13.27;;;;;;;33.57;62.09;100519.56;5033646;28;70186;-40
2021/09/28 06:58:45;;;;;;;15.10;14.00;;;;;;;33.61;61.97;100503.59;5024642;28;65630;-40
2021/09/28 07:01:19;;;;;;;13.85;12.75;;;;;;;33.65;62.12;100489.22;5042549;27;69122;-40
2021/09/28 07:03:52;;;;;;;15.20;14.07;;;;;;;33.63;62.00;100485.09;5038137;28;65999;-39
2021/09/28 07:06:27;;;;;;;14.82;13.65;;;;;;;33.67;61.79;100476.22;5042474;28;70118;-40
2021/09/28 07:09:04;;;;;;;15.43;14.40;;;;;;;33.69;61.43;100479.50;5038024;27;66840;-40
2021/09/28 07:11:41;;;;;;;15.32;14.18;;;;;;;33.74;61.99;100459.69;5035339;28;70006;-40
2021/09/28 07:14:17;;;;;;;14.50;13.40;;;;;;;33.72;62.12;100464.59;5029550;28;66032;-40
2021/09/28 07:16:51;;;;;;;14.82;13.45;;;;;;;33.73;62.42;100450.72;5043346;28;69975;-42
2021/09/28 07:19:33;;;;;;;15.48;14.27;;;;;;;33.72;61.57;100459.97;5042716;28;65998;-42
2021/09/28 07:22:06;;;;;;;14.30;13.05;;;;;;;33.76;62.01;100463.81;5030978;28;69706;-41
2021/09/28 07:24:39;;;;;;;14.63;13.52;;;;;;;33.74;62.19;100460.56;5035595;28;65156;-42
2021/09/28 07:27:12;;;;;;;15.38;13.95;;;;;;;33.75;62.08;100473.06;5015053;28;69257;-41
2021/09/28 07:29:49;;;;;;;14.52;13.43;;;;;;;33.73;62.13;100477.91;5023688;28;65045;-40
2021/09/28 07:32:28;;;;;;;15.02;13.93;;;;;;;33.80;61.93;100486.75;5022539;28;70848;-41
2021/09/28 07:35:03;;;;;;;14.35;13.27;;;;;;;33.77;61.85;100481.81;5040430;28;66497;-41
2021/09/28 07:37:38;;;;;;;15.60;14.23;;;;;;;33.75;61.78;100466.81;5038532;28;70757;-41
2021/09/28 07:40:14;;;;;;;14.57;13.57;;;;;;;33.78;61.64;100456.25;5006700;28;66003;-41
2021/09/28 07:42:55;;;;;;;14.90;13.57;;;;;;;33.81;62.23;100450.28;5036554;28;70649;-41
2021/09/28 07:45:32;;;;;;;14.75;13.63;;;;;;;33.78;62.23;100445.34;5047150;28;66610;-41
2021/09/28 07:48:14;;;;;;;15.65;14.18;;;;;;;33.83;61.97;100452.78;5049688;28;69935;-41
2021/09/28 07:51:04;;;;;;;15.40;14.23;;;;;;;33.84;62.00;100459.03;5033758;28;66352;-41
2021/09/28 07:53:48;;;;;;;15.55;14.25;;;;;;;33.79;61.31;100465.22;5034373;28;69467;-41
2021/09/28 07:56:22;;;;;;;16.17;14.73;;;;;;;33.81;60.98;100472.06;5028404;28;66769;-40
2021/09/28 07:58:54;;;;;;;16.98;15.25;;;;;;;33.81;61.32;100474.78;5048124;28;70211;-40
2021/09/28 08:01:30;;;;;;;17.02;15.40;;;;;;;33.81;61.77;100466.63;5009335;28;65632;-40
2021/09/28 08:04:08;;;;;;;16.73;14.95;;;;;;;33.72;61.68;100445.56;5016876;28;69711;-40
2021/09/28 08:06:55;;;;;;;17.35;16.05;;;;;;;33.84;61.61;100448.16;5032530;28;65212;-40
2021/09/28 08:09:33;;;;;;;16.33;14.93;;;;;;;33.80;61.47;100437.78;5029488;28;69240;-40
2021/09/28 08:12:12;;;;;;;16.65;15.30;;;;;;;33.81;62.43;100430.44;5038596;28;65429;-41
2021/09/28 08:14:55;;;;;;;16.98;15.30;;;;;;;33.76;61.97;100425.72;5043591;28;70138;-40
2021/09/28 08:17:46;;;;;;;19.35;17.05;;;;;;;33.77;62.08;100421.97;5035781;28;65350;-43
2021/09/28 08:20:22;;;;;;;19.33;17.20;;;;;;;33.73;62.22;100409.91;5044642;28;69720;-41
2021/09/28 08:22:59;;;;;;;17.73;16.00;;;;;;;33.78;62.33;100407.28;5036094;28;65929;-41
2021/09/28 08:31:23;;;;;;;19.10;17.13;;;;;;;33.74;62.50;100424.34;5049417;28;69178;-40
2021/09/28 08:33:56;;;;;;;19.35;17.33;;;;;;;33.73;62.52;100442.56;5029971;28;66154;-41
2021/09/28 08:36:32;;;;;;;18.02;16.40;;;;;;;33.67;62.23;100438.13;5051659;28;69561;-41
2021/09/28 08:39:06;;;;;;;20.45;16.95;;;;;;;33.73;61.97;100450.72;5025870;28;65549;-40
2021/09/28 08:41:40;;;;;;;18.15;16.42;;;;;;;33.73;61.81;100448.00;5048997;28;70156;-43
2021/09/28 08:44:15;;;;;;;16.45;15.13;;;;;;;33.74;61.32;100438.78;5015329;28;65914;-41
2021/09/28 08:46:55;;;;;;;17.52;15.70;;;;;;;33.73;61.06;100430.88;5027832;28;70413;-40
2021/09/28 08:49:29;;;;;;;23.15;15.40;;;;;;;33.71;61.25;100431.13;5035852;28;66720;-41
2021/09/28 08:52:04;;;;;;;16.50;14.73;;;;;;;33.72;60.65;100430.03;5050033;27;69342;-41
2021/09/28 08:54:37;;;;;;;15.82;14.43;;;;;;;33.69;60.90;100430.53;5045217;28;63487;-41
2021/09/28 08:57:09;;;;;;;16.88;15.43;;;;;;;33.69;61.11;100438.72;5040779;27;70498;-40
2021/09/28 08:59:49;;;;;;;15.32;14.23;;;;;;;33.69;61.19;100441.44;5020861;28;65851;-41
2021/09/28 09:02:21;;;;;;;16.90;15.27;;;;;;;33.67;61.26;100451.72;5029060;28;69177;-39
2021/09/28 09:05:04;;;;;;;15.07;13.95;;;;;;;33.58;61.20;100442.34;5042405;28;65858;-41
2021/09/28 09:07:37;;;;;;;16.13;14.75;;;;;;;33.65;61.37;100448.44;5043766;28;70887;-41
2021/09/28 09:10:10;;;;;;;16.00;14.60;;;;;;;33.66;61.77;100447.38;5042829;28;65525;-42
2021/09/28 09:12:42;;;;;;;14.82;13.70;;;;;;;33.65;60.96;100442.16;5047958;28;71028;-41
2021/09/28 09:15:35;;;;;;;15.73;14.52;;;;;;;33.42;60.30;100418.69;5039076;27;66380;-40
2021/09/28 09:18:09;;;;;;;15.90;14.60;;;;;;;33.64;60.67;100459.56;5035989;28;69204;-40
2021/09/28 09:20:44;;;;;;;14.65;13.43;;;;;;;33.66;60.30;100463.69;5045378;27;66238;-40
2021/09/28 09:23:32;;;;;;;14.85;13.35;;;;;;;33.37;58.01;100438.44;5027742;28;69471;-40
2021/09/28 09:26:31;;;;;;;20.85;12.90;;;;;;;33.26;57.03;100442.91;5042371;28;66062;-41
2021/09/28 09:29:05;;;;;;;15.32;13.82;;;;;;;33.56;58.27;100485.28;5042180;28;69873;-41
2021/09/28 09:31:54;;;;;;;14.55;13.25;;;;;;;33.47;58.26;100493.00;5044839;28;66440;-40
2021/09/28 09:34:30;;;;;;;15.45;13.82;;;;;;;33.50;59.00;100491.69;5037337;28;70242;-40
2021/09/28 09:37:07;;;;;;;15.13;13.93;;;;;;;33.48;60.03;100499.25;5028115;28;66840;-47
2021/09/28 09:39:49;;;;;;;17.30;15.88;;;;;;;33.42;60.50;100494.81;5039782;28;69903;-40
2021/09/28 09:42:23;;;;;;;16.25;14.75;;;;;;;33.40;60.91;100500.50;5045811;28;65686;-41
2021/09/28 09:44:54;;;;;;;15.20;14.10;;;;;;;33.36;60.93;100513.75;5039924;28;69735;-41
2021/09/28 09:47:33;;;;;;;15.93;14.27;;;;;;;33.20;60.90;100490.09;5030797;28;66893;-40
2021/09/28 09:50:17;;;;;;;16.27;14.93;;;;;;;33.19;61.94;100518.34;5030111;28;69288;-41
2021/09/28 09:52:57;;;;;;;15.93;14.70;;;;;;;33.19;62.29;100526.50;5037996;28;66842;-40
2021/09/28 09:55:31;;;;;;;16.73;15.32;;;;;;;33.18;62.43;100527.56;5040415;28;70326;-40
2021/09/28 09:58:03;;;;;;;16.35;14.50;;;;;;;32.98;62.99;100505.44;5038489;28;66037;-40
2021/09/28 10:00:34;;;;;;;22.73;14.15;;;;;;;33.08;63.42;100541.00;5036335;28;70120;-39
2021/09/28 10:03:06;;;;;;;22.23;16.97;;;;;;;33.06;63.38;100543.13;5060248;27;64397;-40
2021/09/28 10:05:38;;;;;;;22.10;16.75;;;;;;;33.03;63.43;100546.31;5040489;28;70500;-39
2021/09/28 10:08:13;;;;;;;21.90;17.50;;;;;;;33.03;64.00;100549.03;5038777;28;65256;-39
2021/09/28 10:10:44;;;;;;;34.95;19.27;;;;;;;33.00;63.96;100546.81;5042579;28;68940;-39
2021/09/28 10:13:56;;;;;;;27.02;17.08;;;;;;;32.85;65.28;100550.84;5045228;28;65741;-39
2021/09/28 10:16:35;;;;;;;113.93;50.88;;;;;;;32.98;64.78;100555.16;5027588;28;70006;-39
2021/09/28 10:19:29;;;;;;;154.45;69.72;;;;;;;32.97;64.89;100547.28;5050099;28;66106;-39
2021/09/28 10:22:00;;;;;;;168.40;74.65;;;;;;;33.09;64.51;100545.34;5048149;28;70224;-40
2021/09/28 10:24:33;;;;;;;113.43;53.92;;;;;;;33.12;64.23;100542.13;5046254;28;66385;-41
2021/09/28 10:27:09;;;;;;;114.22;53.17;;;;;;;33.17;64.21;100542.22;5045228;27;70278;-40
2021/09/28 10:29:56;;;;;;;111.10;50.65;;;;;;;33.17;64.08;100550.38;5057316;27;65672;-41
2021/09/28 10:32:44;;;;;;;98.45;48.40;;;;;;;33.20;64.05;100558.06;5049120;28;70274;-40
2021/09/28 10:35:17;;;;;;;96.13;44.53;;;;;;;33.22;63.77;100566.78;5054340;28;65346;-40
2021/09/28 10:37:50;;;;;;;92.43;44.50;;;;;;;33.22;64.00;100565.97;5043951;28;69906;-40
2021/09/28 10:40:20;;;;;;;92.47;42.17;;;;;;;33.22;63.82;100566.78;5048452;28;66145;-40
2021/09/28 10:42:57;;;;;;;79.97;40.70;;;;;;;33.24;63.50;100583.69;5040780;28;69820;-40
2021/09/28 10:45:31;;;;;;;86.40;41.20;;;;;;;33.26;63.54;100586.97;5047391;28;65685;-40
2021/09/28 10:48:08;;;;;;;81.32;38.42;;;;;;;33.27;63.47;100594.06;5049315;28;69894;-40
2021/09/28 10:50:41;;;;;;;74.32;38.05;;;;;;;33.10;63.47;100577.72;5051829;28;66343;-40
2021/09/28 10:53:21;;;;;;;79.38;37.85;;;;;;;33.25;63.32;100612.50;5047325;28;70147;-40
2021/09/28 10:55:58;;;;;;;77.93;35.30;;;;;;;33.27;63.47;100612.28;5050682;28;66330;-40
2021/09/28 10:58:30;;;;;;;64.25;30.13;;;;;;;33.25;63.38;100617.13;5039632;28;69446;-40
2021/09/28 11:01:04;;;;;;;53.43;27.73;;;;;;;33.19;63.28;100621.66;5045339;27;66008;-40
2021/09/28 11:03:42;;;;;;;48.97;25.80;;;;;;;33.15;63.81;100609.59;5037406;28;70103;-40
2021/09/28 11:06:14;;;;;;;47.80;24.48;;;;;;;33.12;64.21;100610.06;5032584;28;66296;-40
2021/09/28 11:08:53;;;;;;;43.03;22.60;;;;;;;33.04;64.49;100613.19;5045125;28;69934;-39
2021/09/28 11:11:26;;;;;;;42.67;21.45;;;;;;;33.07;64.86;100612.69;5020489;28;66160;-40
2021/09/28 11:14:01;;;;;;;34.85;19.30;;;;;;;32.97;64.47;100604.31;5024765;28;70073;-40
2021/09/28 11:16:56;;;;;;;38.30;18.80;;;;;;;32.99;64.96;100615.75;5043227;28;65471;-39
2021/09/28 11:19:38;;;;;;;29.23;17.75;;;;;;;32.88;65.32;100609.31;5041602;28;70048;-39
2021/09/28 11:22:16;;;;;;;28.70;17.23;;;;;;;32.99;64.89;100626.63;5045743;28;65077;-38
2021/09/28 11:24:47;;;;;;;24.55;15.93;;;;;;;32.97;66.33;100640.47;5048939;28;69842;-39
2021/09/28 11:27:19;;;;;;;18.27;15.05;;;;;;;32.99;65.40;100640.22;5043566;28;66658;-39
2021/09/28 11:29:55;;;;;;;23.08;14.73;;;;;;;32.96;65.42;100643.41;5041824;28;70326;-40
2021/09/28 11:32:26;;;;;;;17.60;13.82;;;;;;;32.96;65.02;100654.28;5049043;28;66102;-39
2021/09/28 11:34:58;;;;;;;14.88;12.50;;;;;;;32.99;64.77;100659.22;5047790;28;70684;-40
2021/09/28 11:37:31;;;;;;;15.00;13.20;;;;;;;33.00;64.77;100666.38;5045469;28;65899;-39
2021/09/28 11:40:03;;;;;;;16.75;12.98;;;;;;;32.97;64.83;100677.69;5046442;28;69436;-40
2021/09/28 11:42:33;;;;;;;;;;;;;;;32.64;65.72;100673.72;5049308;28;65960;-39
2021/09/28 11:45:08;;;;;;;15.05;11.90;;;;;;;32.92;65.52;100681.13;5042292;28;69275;-40
2021/09/28 11:47:41;;;;;;;13.48;12.07;;;;;;;32.94;64.79;100690.69;5043888;28;66587;-38
2021/09/28 11:50:12;;;;;;;12.32;11.32;;;;;;;32.92;64.75;100690.09;5038619;28;70083;-39
2021/09/28 11:52:46;;;;;;;11.60;10.55;;;;;;;32.88;65.24;100675.34;5044951;28;66444;-40
2021/09/28 11:55:22;;;;;;;11.75;10.73;;;;;;;32.89;65.43;100682.41;5038591;28;69427;-38